Time;durP1;ratioP1;P1;durP2;ratioP2;P2;SDS_P1;SDS_P2;PMS_P1;PMS_P2;Temp;Humidity;BMP_temperature;BMP_pressure;BME280_temperature;BME280_humidity;BME280_pressure;Samples;Min_cycle;Max_cycle;Signal;HPM_P1;HPM_P2
2023/09/07 00:01:39;;;;;;;10.02;5.00;;;19.60;99.90;;;20.62;63.81;100978.66;6212589;23;20031;-82
2023/09/07 00:04:06;;;;;;;10.68;4.57;;;19.60;99.90;;;20.60;63.29;100975.41;6211654;23;20023;-82
2023/09/07 00:06:34;;;;;;;8.50;4.88;;;19.60;99.90;;;20.57;63.61;100971.31;6213063;23;20092;-83
2023/09/07 00:09:02;;;;;;;8.77;4.72;;;19.60;99.90;;;20.55;63.48;100971.59;6212492;23;20028;-83
2023/09/07 00:11:31;;;;;;;9.07;5.00;;;19.60;99.90;;;20.54;63.40;100967.22;6211878;23;20475;-82
2023/09/07 00:13:59;;;;;;;7.82;4.90;;;19.50;99.90;;;20.52;63.14;100969.41;6211201;23;20363;-82
2023/09/07 00:16:26;;;;;;;10.18;4.65;;;19.50;99.90;;;20.51;63.16;100964.25;6236858;23;20020;-82
2023/09/07 00:18:54;;;;;;;7.82;4.50;;;19.50;99.90;;;20.48;63.59;100968.28;6213539;23;20017;-82
2023/09/07 00:21:22;;;;;;;12.00;4.90;;;19.50;99.90;;;20.47;63.73;100969.38;6212046;23;20024;-82
2023/09/07 00:23:49;;;;;;;8.15;4.80;;;19.40;99.90;;;20.44;63.38;100967.16;6212308;23;20452;-82
2023/09/07 00:26:16;;;;;;;9.32;5.22;;;19.40;99.90;;;20.41;63.54;100967.72;6236002;23;20487;-82
2023/09/07 00:28:43;;;;;;;7.85;4.75;;;19.40;99.90;;;20.40;63.48;100967.94;6210428;23;20356;-82
2023/09/07 00:31:11;;;;;;;7.90;4.40;;;19.40;99.90;;;20.38;63.29;100968.22;6212190;23;20383;-82
2023/09/07 00:33:38;;;;;;;8.70;4.53;;;19.40;99.90;;;20.37;63.54;100966.59;6210774;23;20441;-82
2023/09/07 00:36:07;;;;;;;8.43;4.90;;;19.40;99.90;;;20.36;63.43;100964.97;6213134;23;20044;-83
2023/09/07 00:38:34;;;;;;;9.02;4.82;;;19.40;99.90;;;20.35;63.30;100974.19;6211308;23;20512;-83
2023/09/07 00:41:02;;;;;;;8.32;4.60;;;19.40;99.90;;;20.34;63.58;100972.53;6234826;22;20024;-82
2023/09/07 00:43:29;;;;;;;11.45;5.45;;;19.30;99.90;;;20.32;63.23;100972.00;6210018;23;20036;-82
2023/09/07 00:45:57;;;;;;;11.43;5.10;;;19.30;99.90;;;20.28;63.60;100966.28;6210697;23;20137;-82
2023/09/07 00:48:24;;;;;;;7.95;5.05;;;19.30;99.90;;;20.28;63.51;100968.19;6210400;23;20031;-82
2023/09/07 00:50:52;;;;;;;9.77;5.10;;;19.30;99.90;;;20.25;63.41;100961.41;6209942;23;20031;-82
2023/09/07 00:53:22;;;;;;;8.13;4.63;;;19.30;99.90;;;20.22;63.44;100967.34;6211229;23;20078;-82
2023/09/07 00:55:49;;;;;;;10.45;4.90;;;19.20;99.90;;;20.20;63.54;100963.25;6210324;23;20031;-82
2023/09/07 00:58:17;;;;;;;6.95;4.80;;;19.20;99.90;;;20.18;63.02;100963.53;6236753;23;20050;-82
2023/09/07 01:00:44;;;;;;;8.02;4.43;;;19.20;99.90;;;20.17;63.29;100955.69;6209599;23;20021;-82
2023/09/07 01:03:12;;;;;;;8.95;5.07;;;19.20;99.90;;;20.15;63.04;100961.34;6210255;23;20024;-82
2023/09/07 01:05:47;;;;;;;13.48;5.53;;;19.20;99.90;;;20.15;63.47;100953.22;6210653;23;20024;-83
2023/09/07 01:08:24;;;;;;;10.82;5.20;;;19.20;99.90;;;20.16;63.05;100952.16;6212567;23;20444;-82
2023/09/07 01:10:52;;;;;;;10.13;4.93;;;19.20;99.90;;;20.15;63.40;100953.22;6209469;23;20021;-82
2023/09/07 01:13:19;;;;;;;9.82;5.22;;;19.20;99.90;;;20.13;63.05;100952.66;6212862;23;20074;-82
2023/09/07 01:15:47;;;;;;;10.02;5.30;;;19.20;99.90;;;20.11;63.42;100954.84;6235938;23;20021;-82
2023/09/07 01:18:17;;;;;;;12.05;5.15;;;19.10;99.90;;;20.08;63.07;100947.22;6210678;23;20048;-82
2023/09/07 01:20:46;;;;;;;9.70;5.13;;;19.10;99.90;;;20.06;63.29;100944.78;6234692;22;20459;-82
2023/09/07 01:23:16;;;;;;;9.60;5.22;;;19.10;99.90;;;20.05;63.38;100947.75;6236249;23;20100;-82
2023/09/07 01:25:44;;;;;;;9.63;5.10;;;19.10;99.90;;;20.00;63.73;100943.09;6235577;23;20811;-82
2023/09/07 01:28:11;;;;;;;12.60;5.40;;;19.00;99.90;;;19.98;63.24;100939.06;6209902;23;20043;-83
2023/09/07 01:30:41;;;;;;;8.60;5.13;;;19.00;99.90;;;19.93;63.88;100942.53;6210915;23;20028;-82
2023/09/07 01:33:09;;;;;;;8.15;5.40;;;19.00;99.90;;;19.92;63.26;100942.81;6210451;23;20103;-82
2023/09/07 01:35:39;;;;;;;11.77;4.63;;;18.90;99.90;;;19.90;63.29;100940.34;6211050;23;20024;-83
2023/09/07 01:38:06;;;;;;;11.35;5.32;;;18.90;99.90;;;19.88;63.27;100941.69;6210716;23;20473;-82
2023/09/07 01:40:35;;;;;;;8.93;5.05;;;18.90;99.90;;;19.85;63.16;100939.50;6211951;23;20079;-83
2023/09/07 01:43:03;;;;;;;11.50;5.20;;;18.80;99.90;;;19.83;63.52;100939.78;6210745;23;20047;-83
2023/09/07 01:45:30;;;;;;;7.38;5.05;;;18.80;99.90;;;19.79;63.36;100936.75;6209558;23;20075;-83
2023/09/07 01:47:59;;;;;;;9.77;4.93;;;18.80;99.90;;;19.78;63.47;100937.84;6212739;23;20470;-83
2023/09/07 01:50:27;;;;;;;9.10;5.00;;;18.80;99.90;;;19.74;63.63;100931.31;6209754;23;20028;-82
2023/09/07 01:52:54;;;;;;;9.35;5.65;;;18.70;99.90;;;19.73;63.77;100934.28;6212914;23;20024;-82
2023/09/07 01:55:21;;;;;;;10.35;4.68;;;18.80;99.90;;;19.71;63.67;100928.31;6212275;23;20017;-82
2023/09/07 01:57:50;;;;;;;8.27;4.70;;;18.70;99.90;;;19.70;63.67;100934.81;6237139;23;20024;-81
2023/09/07 02:00:17;;;;;;;11.50;5.55;;;18.70;99.90;;;19.68;63.51;100936.97;6211948;23;20021;-82
2023/09/07 02:02:44;;;;;;;10.35;4.82;;;18.60;99.90;;;19.66;63.48;100942.63;6211744;23;20090;-81
2023/09/07 02:05:12;;;;;;;11.75;5.32;;;18.60;99.90;;;19.63;63.28;100939.63;6235759;23;20075;-82
2023/09/07 02:07:39;;;;;;;10.88;4.85;;;18.60;99.90;;;19.62;63.15;100933.41;6212160;23;20099;-82
2023/09/07 02:10:08;;;;;;;8.68;5.13;;;18.60;99.90;;;19.59;63.15;100931.19;6237074;22;20029;-82
2023/09/07 02:12:35;;;;;;;7.20;4.75;;;18.60;99.90;;;19.54;63.64;100934.66;6210426;23;20025;-82
2023/09/07 02:15:06;;;;;;;8.30;4.88;;;18.50;99.90;;;19.52;63.70;100922.47;6212979;23;20447;-82
2023/09/07 02:17:33;;;;;;;8.80;4.60;;;18.50;99.90;;;19.51;63.68;100928.94;6214241;23;20021;-82
2023/09/07 02:20:00;;;;;;;8.52;4.50;;;18.50;99.90;;;19.48;63.62;100924.88;6211463;23;20923;-82
2023/09/07 02:22:27;;;;;;;8.82;4.50;;;18.50;99.90;;;19.46;63.52;100921.63;6211939;23;20027;-82
2023/09/07 02:24:55;;;;;;;8.90;4.70;;;18.50;99.90;;;19.47;63.32;100919.72;6211513;23;20063;-83
2023/09/07 02:27:22;;;;;;;11.90;4.78;;;18.50;99.90;;;19.44;63.54;100926.47;6212395;23;20048;-82
2023/09/07 02:29:49;;;;;;;8.48;4.65;;;18.50;99.90;;;19.43;63.17;100924.84;6213175;23;20020;-82
2023/09/07 02:32:18;;;;;;;7.47;4.50;;;18.40;99.90;;;19.42;63.29;100922.38;6212490;23;20341;-82
2023/09/07 02:34:46;;;;;;;12.30;4.82;;;18.40;99.90;;;19.41;63.17;100918.88;6237330;23;20463;-82
2023/09/07 02:37:14;;;;;;;7.75;4.40;;;18.40;99.90;;;19.40;63.05;100924.53;6211646;23;20347;-82
2023/09/07 02:39:41;;;;;;;7.88;4.85;;;18.40;99.90;;;19.37;63.09;100925.06;6210930;23;20055;-82
2023/09/07 02:42:09;;;;;;;6.60;4.25;;;18.30;99.90;;;19.34;63.26;100923.69;6211537;23;20025;-82
2023/09/07 02:44:37;;;;;;;9.52;4.15;;;18.30;99.90;;;19.32;63.35;100922.31;6211392;23;20031;-83
2023/09/07 02:47:05;;;;;;;7.93;4.90;;;18.30;99.90;;;19.29;63.18;100924.47;6211489;23;20024;-82
2023/09/07 02:49:34;;;;;;;10.32;4.00;;;18.30;99.90;;;19.30;62.69;100919.88;6213156;23;20051;-83
2023/09/07 02:52:01;;;;;;;9.15;4.63;;;18.30;99.90;;;19.28;63.01;100922.03;6211817;23;20029;-81
2023/09/07 02:54:29;;;;;;;12.10;4.57;;;18.30;99.90;;;19.29;62.68;100920.94;6211940;23;20048;-82
2023/09/07 02:56:56;;;;;;;9.23;4.60;;;18.30;99.90;;;19.26;63.21;100921.47;6211859;23;20412;-82
2023/09/07 02:59:23;;;;;;;10.30;4.38;;;18.20;99.90;;;19.23;62.86;100922.81;6210879;23;20396;-82
2023/09/07 03:01:50;;;;;;;7.35;4.13;;;18.20;99.90;;;19.23;62.89;100922.00;6211331;23;20031;-82
2023/09/07 03:04:18;;;;;;;8.55;3.95;;;18.20;99.90;;;19.22;63.11;100920.34;6213794;23;20054;-82
2023/09/07 03:06:46;;;;;;;7.00;4.30;;;18.20;99.90;;;19.20;63.14;100917.91;6211718;23;20463;-82
2023/09/07 03:09:14;;;;;;;7.43;4.03;;;18.20;99.90;;;19.19;63.18;100918.97;6209959;23;20102;-82
2023/09/07 03:11:41;;;;;;;11.38;4.00;;;18.20;99.90;;;19.19;62.77;100915.47;6210232;23;20511;-82
2023/09/07 03:14:09;;;;;;;7.80;4.10;;;18.20;99.90;;;19.18;62.98;100916.50;6237622;23;20028;-82
2023/09/07 03:16:38;;;;;;;7.95;4.35;;;18.20;99.90;;;19.16;62.81;100910.56;6211970;23;20025;-82
2023/09/07 03:19:06;;;;;;;9.23;4.20;;;18.20;99.90;;;19.14;62.88;100913.53;6211548;23;20111;-82
2023/09/07 03:21:34;;;;;;;8.80;4.22;;;18.10;99.90;;;19.13;62.71;100916.47;6212675;23;20127;-82
2023/09/07 03:24:03;;;;;;;7.82;4.78;;;18.10;99.90;;;19.11;63.26;100916.72;6211416;23;20028;-82
2023/09/07 03:26:30;;;;;;;6.82;4.22;;;18.10;99.90;;;19.09;63.28;100907.25;6210973;23;20407;-82
2023/09/07 03:28:57;;;;;;;6.68;4.30;;;18.10;99.90;;;19.06;63.11;100911.28;6213143;23;20052;-82
2023/09/07 03:31:25;;;;;;;7.15;4.53;;;18.10;99.90;;;19.04;63.14;100911.53;6211226;23;20059;-82
2023/09/07 03:33:52;;;;;;;10.52;4.70;;;18.10;99.90;;;19.02;63.32;100905.56;6211662;23;20043;-82
2023/09/07 03:36:19;;;;;;;8.80;4.32;;;18.00;99.90;;;19.02;62.96;100913.66;6211203;23;20060;-82
2023/09/07 03:38:47;;;;;;;7.47;4.05;;;18.00;99.90;;;19.00;63.39;100910.41;6236362;23;20035;-82
2023/09/07 03:41:17;;;;;;;9.02;4.10;;;18.00;99.90;;;19.01;63.26;100905.81;6210884;23;20034;-82
2023/09/07 03:43:45;;;;;;;6.25;4.15;;;18.10;99.90;;;18.99;62.95;100914.19;6236283;23;20120;-82
2023/09/07 03:46:12;;;;;;;9.57;4.10;;;18.00;99.90;;;18.97;63.39;100910.91;6211049;23;20025;-82
2023/09/07 03:48:39;;;;;;;7.18;4.20;;;18.00;99.90;;;18.96;63.66;100917.41;6236367;23;20020;-82
2023/09/07 03:51:07;;;;;;;6.95;4.22;;;18.00;99.90;;;18.95;63.58;100917.69;6210524;23;20036;-82
2023/09/07 03:53:35;;;;;;;10.25;4.47;;;17.90;99.90;;;18.93;63.24;100919.81;6211646;23;20103;-82
2023/09/07 03:56:05;;;;;;;9.05;4.35;;;17.90;99.90;;;18.91;63.51;100917.34;6210552;23;20463;-81
2023/09/07 03:58:34;;;;;;;6.22;4.32;;;17.90;99.90;;;18.90;63.49;100917.63;6211677;23;20025;-82
2023/09/07 04:01:01;;;;;;;7.95;4.30;;;17.90;99.90;;;18.87;63.38;100923.53;6210401;23;20035;-81
2023/09/07 04:03:30;;;;;;;9.10;4.40;;;17.90;99.90;;;18.85;63.41;100926.50;6211435;23;20620;-83
2023/09/07 04:05:57;;;;;;;9.63;3.78;;;17.80;99.90;;;18.83;63.28;100917.81;6213080;23;20020;-80
2023/09/07 04:08:24;;;;;;;6.75;4.07;;;17.80;99.90;;;18.82;63.15;100920.78;6236418;23;20021;-80
2023/09/07 04:10:51;;;;;;;7.47;4.10;;;17.80;99.90;;;18.80;63.09;100920.22;6213265;23;20103;-80
2023/09/07 04:13:19;;;;;;;7.93;3.90;;;17.80;99.90;;;18.78;63.20;100925.88;6235822;23;20024;-80
2023/09/07 04:15:47;;;;;;;7.57;4.40;;;17.80;99.90;;;18.76;63.02;100920.72;6210677;23;20021;-81
2023/09/07 04:18:17;;;;;;;10.35;4.53;;;17.70;99.90;;;18.74;63.20;100922.06;6212031;23;20770;-80
2023/09/07 04:20:45;;;;;;;7.20;4.65;;;17.70;99.90;;;18.71;63.28;100923.38;6209869;23;20020;-80
2023/09/07 04:23:13;;;;;;;7.10;4.25;;;17.70;99.90;;;18.69;63.37;100924.69;6210835;23;20024;-80
2023/09/07 04:25:41;;;;;;;8.57;4.47;;;17.70;99.90;;;18.65;63.47;100929.78;6210376;23;20028;-80
2023/09/07 04:28:09;;;;;;;10.70;4.65;;;17.70;99.90;;;18.66;63.43;100922.47;6236802;23;20051;-80
2023/09/07 04:30:39;;;;;;;8.23;4.15;;;17.70;99.90;;;18.65;63.60;100927.06;6209857;23;20116;-80
2023/09/07 04:33:08;;;;;;;9.13;4.97;;;17.70;99.90;;;18.67;63.61;100932.22;6210122;23;20084;-80
2023/09/07 04:35:36;;;;;;;8.50;4.70;;;17.70;99.90;;;18.65;63.62;100927.06;6235736;23;20028;-80
2023/09/07 04:38:05;;;;;;;8.55;4.25;;;17.70;99.90;;;18.63;63.72;100931.06;6211976;23;20025;-80
2023/09/07 04:40:32;;;;;;;6.57;4.32;;;17.60;99.90;;;18.57;63.98;100932.09;6234128;22;20086;-81
2023/09/07 04:43:00;;;;;;;7.10;4.30;;;17.60;99.90;;;18.56;64.12;100930.47;6209680;23;20027;-81
2023/09/07 04:45:27;;;;;;;8.10;4.70;;;17.60;99.90;;;18.56;64.34;100935.88;6234335;23;20028;-82
2023/09/07 04:47:55;;;;;;;10.27;4.53;;;17.60;99.90;;;18.55;64.17;100928.84;6209725;23;20017;-81
2023/09/07 04:50:23;;;;;;;6.78;4.03;;;17.60;99.90;;;18.53;63.98;100929.88;6210116;23;20024;-81
2023/09/07 04:52:51;;;;;;;9.40;5.05;;;17.60;99.90;;;18.54;63.62;100925.31;6210869;23;20029;-81
2023/09/07 04:55:18;;;;;;;9.82;5.05;;;17.60;99.90;;;18.53;63.72;100929.88;6211676;23;20028;-82
2023/09/07 04:57:45;;;;;;;8.25;4.85;;;17.60;99.90;;;18.53;63.67;100932.59;6211048;23;20048;-82
2023/09/07 05:00:14;;;;;;;9.18;4.53;;;17.60;99.90;;;18.52;63.77;100928.25;6234785;22;20471;-82
2023/09/07 05:02:42;;;;;;;9.48;4.47;;;17.60;99.90;;;18.49;63.51;100922.53;6234919;23;20071;-81
2023/09/07 05:05:10;;;;;;;8.13;4.82;;;17.60;99.90;;;18.48;63.57;100929.03;6211242;23;20104;-80
2023/09/07 05:07:38;;;;;;;8.07;4.70;;;17.50;99.90;;;18.48;63.50;100931.72;6210233;23;20078;-80
2023/09/07 05:10:08;;;;;;;8.13;4.55;;;17.50;99.90;;;18.45;63.64;100934.94;6208625;23;20028;-80
2023/09/07 05:12:36;;;;;;;7.38;4.13;;;17.50;99.90;;;18.45;63.90;100938.47;6210115;23;20107;-80
2023/09/07 05:15:06;;;;;;;7.20;4.55;;;17.50;99.90;;;18.44;63.69;100934.09;6210466;23;20071;-80
2023/09/07 05:17:33;;;;;;;8.48;4.60;;;17.50;99.90;;;18.44;63.96;100934.09;6211203;23;20474;-80
2023/09/07 05:20:00;;;;;;;9.48;4.32;;;17.50;99.90;;;18.43;64.16;100929.78;6208031;23;20021;-80
2023/09/07 05:22:28;;;;;;;6.35;4.47;;;17.50;99.90;;;18.44;64.07;100934.09;6209634;23;20438;-80
2023/09/07 05:24:57;;;;;;;9.15;4.32;;;17.60;99.90;;;18.46;63.90;100931.97;6210460;23;20028;-80
2023/09/07 05:27:25;;;;;;;9.40;4.80;;;17.60;99.90;;;18.47;64.19;100933.59;6236312;23;20451;-81
2023/09/07 05:29:52;;;;;;;9.15;5.05;;;17.50;99.90;;;18.50;64.05;100933.13;6211129;23;20020;-80
2023/09/07 05:32:19;;;;;;;8.35;4.63;;;17.60;99.90;;;18.51;64.44;100942.84;6235480;23;20048;-80
2023/09/07 05:34:46;;;;;;;8.23;4.90;;;17.60;99.90;;;18.52;64.77;100940.97;6212479;23;20043;-81
2023/09/07 05:37:14;;;;;;;7.90;4.70;;;17.70;99.90;;;18.53;64.55;100943.41;6212430;23;20025;-81
2023/09/07 05:39:41;;;;;;;9.10;4.35;;;17.70;99.90;;;18.56;65.13;100947.50;6210040;23;20617;-81
2023/09/07 05:42:09;;;;;;;11.70;4.38;;;17.70;99.90;;;18.60;65.28;100950.50;6210678;23;20087;-81
2023/09/07 05:44:37;;;;;;;11.40;4.82;;;17.80;99.90;;;18.62;65.26;100948.38;6236423;23;20108;-81
2023/09/07 05:47:05;;;;;;;8.40;4.63;;;17.80;99.90;;;18.65;65.66;100945.97;6210712;23;20016;-81
2023/09/07 05:49:35;;;;;;;13.27;5.50;;;17.90;99.90;;;18.68;66.87;100956.28;6210674;23;20021;-81
2023/09/07 05:52:02;;;;;;;13.57;5.57;;;17.90;99.90;;;18.73;67.08;100956.34;6210959;23;20028;-81
2023/09/07 05:54:30;;;;;;;8.68;5.45;;;18.00;99.90;;;18.72;67.35;100956.63;6210799;23;20025;-81
2023/09/07 05:56:57;;;;;;;11.98;5.70;;;18.10;99.90;;;18.78;66.83;100952.88;6209504;23;20020;-81
2023/09/07 05:59:26;;;;;;;11.13;5.40;;;18.20;99.90;;;18.83;66.74;100949.44;6209715;23;20024;-80
2023/09/07 06:01:53;;;;;;;10.98;5.75;;;18.20;99.90;;;18.87;66.74;100961.38;6211521;23;20075;-81
2023/09/07 06:04:20;;;;;;;11.68;5.80;;;18.20;99.90;;;18.89;67.19;100957.34;6210734;23;20028;-80
2023/09/07 06:06:48;;;;;;;11.15;5.88;;;18.30;99.90;;;18.93;67.19;100947.63;6211776;23;20749;-81
2023/09/07 06:09:15;;;;;;;10.10;5.95;;;18.30;99.90;;;18.95;67.44;100956.34;6209798;23;20482;-81
2023/09/07 06:11:43;;;;;;;10.75;5.65;;;18.40;99.90;;;18.98;67.31;100952.28;6208924;23;20025;-81
2023/09/07 06:14:10;;;;;;;12.10;6.03;;;18.50;99.90;;;19.03;67.56;100957.75;6234344;23;20363;-81
2023/09/07 06:16:40;;;;;;;11.32;5.53;;;18.50;99.90;;;19.04;67.89;100954.81;6209381;23;20052;-81
2023/09/07 06:19:07;;;;;;;11.55;5.78;;;18.60;99.90;;;19.06;67.57;100951.03;6209522;23;20025;-81
2023/09/07 06:21:35;;;;;;;15.48;6.30;;;18.60;99.90;;;19.10;67.28;100952.97;6210409;23;20028;-81
2023/09/07 06:24:02;;;;;;;13.25;6.15;;;18.70;99.90;;;19.14;67.67;100951.38;6209307;23;20024;-81
2023/09/07 06:26:37;;;;;;;11.55;5.85;;;18.70;99.90;;;19.20;68.20;100960.34;6184808;22;20020;-86
2023/09/07 06:29:10;;;;;;;11.48;6.03;;;18.80;99.90;;;19.27;67.96;100958.25;6185521;23;20734;-87
2023/09/07 06:31:42;;;;;;;14.85;6.35;;;19.00;99.90;;;19.32;68.30;100961.00;6186218;23;20048;-86
2023/09/07 06:34:10;;;;;;;10.20;6.50;;;19.10;99.90;;;19.40;68.00;100955.13;6187513;23;20044;-86
2023/09/07 06:36:38;;;;;;;11.30;6.10;;;19.20;99.90;;;19.47;67.83;100957.59;6187202;23;20432;-86
2023/09/07 06:39:06;;;;;;;13.35;6.57;;;19.30;99.90;;;19.54;66.95;100961.72;6187143;23;20398;-86
2023/09/07 06:41:33;;;;;;;16.17;6.43;;;19.30;99.90;;;19.61;67.21;100966.13;6186953;23;20029;-86
2023/09/07 06:44:01;;;;;;;14.55;6.20;;;19.30;99.90;;;19.71;66.62;100979.72;6187492;23;20016;-86
2023/09/07 06:46:30;;;;;;;14.48;6.18;;;19.40;99.90;;;19.75;66.71;100975.44;6188843;23;20024;-86
2023/09/07 06:48:59;;;;;;;11.57;5.80;;;19.40;99.90;;;19.84;65.73;100978.47;6188919;23;20047;-87
2023/09/07 06:51:27;;;;;;;17.52;6.10;;;19.50;99.90;;;19.90;65.63;100977.44;6188281;23;20120;-86
2023/09/07 06:53:54;;;;;;;11.43;5.93;;;19.60;99.90;;;19.93;65.26;100974.22;6214032;23;20472;-86
2023/09/07 06:56:22;;;;;;;14.15;6.32;;;19.60;99.90;;;20.01;65.11;100974.56;6188928;23;20027;-86
2023/09/07 06:58:50;;;;;;;17.40;6.50;;;19.70;99.90;;;20.07;64.81;100975.38;6188603;23;20020;-87
2023/09/07 07:01:17;;;;;;;13.68;6.80;;;19.80;99.90;;;20.11;65.37;100973.78;6188123;23;20017;-86
2023/09/07 07:03:44;;;;;;;12.02;5.80;;;19.90;99.90;;;20.20;65.01;100983.03;6188852;23;20112;-86
2023/09/07 07:06:14;;;;;;;17.67;6.20;;;19.90;99.90;;;20.27;64.66;100980.09;6189367;23;20599;-86
2023/09/07 07:08:41;;;;;;;12.27;5.60;;;20.00;99.90;;;20.35;64.46;100984.19;6188773;23;20021;-87
2023/09/07 07:11:09;;;;;;;12.75;5.68;;;20.10;99.90;;;20.39;63.74;100983.41;6187979;23;20012;-86
2023/09/07 07:13:37;;;;;;;10.25;5.10;;;20.20;99.90;;;20.44;63.56;100983.41;6189173;23;20452;-86
2023/09/07 07:16:05;;;;;;;10.95;5.35;;;20.20;99.90;;;20.49;64.65;100986.19;6189111;23;20025;-86
2023/09/07 07:18:33;;;;;;;12.77;5.15;;;20.30;99.90;;;20.57;64.41;100982.16;6189399;23;20033;-86
2023/09/07 07:21:01;;;;;;;9.60;5.65;;;20.40;99.90;;;20.66;64.49;100987.91;6188081;23;20025;-86
2023/09/07 07:23:30;;;;;;;13.00;5.50;;;20.40;99.90;;;20.72;63.72;100989.53;6188557;23;20459;-86
2023/09/07 07:25:57;;;;;;;9.57;4.93;;;20.60;99.90;;;20.78;63.15;100980.31;6188557;23;20020;-86
2023/09/07 07:28:26;;;;;;;14.73;6.20;;;20.60;99.90;;;20.85;64.01;100986.34;6188475;23;20017;-86
2023/09/07 07:30:53;;;;;;;9.43;5.05;;;20.70;99.90;;;20.90;64.03;100983.63;6212669;23;20044;-86
2023/09/07 07:33:23;;;;;;;10.48;5.10;;;20.80;99.90;;;20.98;64.13;100980.38;6213733;23;20021;-86
2023/09/07 07:35:52;;;;;;;13.50;5.20;;;20.90;99.90;;;21.07;63.91;100986.09;6188770;23;20444;-86
2023/09/07 07:38:20;;;;;;;13.13;6.20;;;21.00;99.90;;;21.13;63.63;100978.78;6164034;23;20048;-86
2023/09/07 07:40:50;;;;;;;8.55;5.50;;;21.10;99.90;;;21.20;62.86;100977.44;6187446;23;20023;-86
2023/09/07 07:43:17;;;;;;;10.20;5.40;;;21.20;99.90;;;21.27;62.66;100974.47;6188432;23;20016;-86
2023/09/07 07:45:45;;;;;;;11.43;5.28;;;21.30;99.90;;;21.34;63.63;100983.19;6188670;23;20027;-86
2023/09/07 07:48:12;;;;;;;12.05;5.18;;;21.30;99.90;;;21.39;62.94;100980.47;6188727;23;20023;-86
2023/09/07 07:50:43;;;;;;;10.88;4.88;;;21.40;99.90;;;21.49;62.40;100983.19;6187858;23;20487;-86
2023/09/07 07:53:14;;;;;;;9.52;4.70;;;21.50;99.90;;;21.57;62.27;100981.84;6188860;23;20107;-87
2023/09/07 07:55:43;;;;;;;8.40;4.80;;;21.60;99.90;;;21.65;61.53;100970.44;6188610;23;20407;-87
2023/09/07 07:58:16;;;;;;;10.90;5.20;;;21.70;99.90;;;21.73;62.31;100967.16;6188484;23;20111;-87
2023/09/07 08:00:47;;;;;;;10.75;5.20;;;21.80;99.90;;;21.83;63.06;100977.19;6187384;23;20021;-87
2023/09/07 08:03:15;;;;;;;10.90;4.85;;;21.90;99.90;;;21.87;63.42;100978.28;6188422;23;20053;-87
2023/09/07 08:05:42;;;;;;;10.93;5.47;;;21.90;99.90;;;21.96;63.14;100979.38;6188070;23;20028;-86
2023/09/07 08:08:11;;;;;;;10.05;4.75;;;22.10;99.90;;;22.05;62.74;100974.97;6188437;23;20024;-86
2023/09/07 08:10:40;;;;;;;13.32;5.07;;;22.20;99.90;;;22.15;62.00;100976.88;6187157;23;20016;-87
2023/09/07 08:13:08;;;;;;;9.60;4.93;;;22.30;99.90;;;22.23;63.25;100972.78;6188562;23;20032;-87
2023/09/07 08:15:37;;;;;;;11.15;5.38;;;22.40;99.90;;;22.30;61.21;100974.16;6213665;23;20044;-86
2023/09/07 08:18:06;;;;;;;12.10;4.97;;;22.50;99.90;;;22.37;61.28;100976.56;6188583;23;20016;-86
2023/09/07 08:20:34;;;;;;;8.23;4.90;;;22.50;99.90;;;22.44;61.29;100973.53;6187716;23;20044;-86
2023/09/07 08:23:07;;;;;;;11.18;4.70;;;22.60;99.90;;;22.49;60.07;100974.31;6188514;23;20016;-86
2023/09/07 08:25:34;;;;;;;12.15;4.72;;;22.70;99.90;;;22.53;60.08;100972.66;6213489;23;20395;-86
2023/09/07 08:28:05;;;;;;;11.95;5.03;;;22.70;99.90;;;22.59;60.10;100968.03;6188545;23;20099;-86
2023/09/07 08:30:34;;;;;;;10.15;4.93;;;22.80;99.90;;;22.71;59.61;100963.06;6187674;23;20020;-86
2023/09/07 08:33:05;;;;;;;12.00;4.45;;;22.90;99.90;;;22.74;60.95;100969.84;6188851;23;20071;-86
2023/09/07 08:35:35;;;;;;;11.43;4.70;;;23.00;99.90;;;22.79;60.68;100962.50;6188614;23;20016;-86
2023/09/07 08:38:05;;;;;;;10.93;4.85;;;23.00;99.90;;;22.87;61.69;100961.88;6188648;23;20021;-86
2023/09/07 08:40:34;;;;;;;11.50;4.53;;;23.10;99.90;;;23.02;61.43;100962.91;6187479;23;20218;-87
2023/09/07 08:43:05;;;;;;;9.32;4.65;;;23.20;99.90;;;23.10;60.63;100959.59;6188137;23;20078;-86
2023/09/07 08:45:40;;;;;;;;;;;23.30;99.90;;;23.15;58.85;100961.47;6188439;23;20099;-86
2023/09/07 08:48:11;;;;;;;7.45;4.72;;;23.40;99.90;;;23.13;57.83;100954.41;6188133;23;19915;-87
2023/09/07 08:50:42;;;;;;;9.25;4.70;;;23.40;99.10;;;23.18;58.41;100952.72;6186957;23;20016;-86
2023/09/07 08:53:10;;;;;;;9.23;4.40;;;23.40;99.90;;;23.23;57.54;100955.41;6213110;23;20024;-86
2023/09/07 08:55:37;;;;;;;6.68;4.10;;;23.50;99.00;;;23.36;57.59;100950.13;6187383;23;20063;-87
2023/09/07 08:58:05;;;;;;;7.70;4.18;;;23.60;99.00;;;23.52;57.83;100952.72;6187875;23;20099;-86
2023/09/07 09:00:33;;;;;;;13.27;4.47;;;23.80;99.30;;;23.64;57.10;100945.84;6212205;23;20028;-87
2023/09/07 09:03:00;;;;;;;8.45;4.15;;;24.00;98.30;;;23.68;57.36;100951.53;6187979;23;20024;-87
2023/09/07 09:05:31;;;;;;;9.63;4.20;;;24.00;98.30;;;23.78;54.79;100947.91;6188195;23;20460;-87
2023/09/07 09:08:05;;;;;;;7.93;4.17;;;24.10;95.50;;;23.76;54.62;100947.38;6187938;23;20020;-86
2023/09/07 09:10:33;;;;;;;7.05;4.05;;;24.10;94.80;;;23.82;55.07;100946.25;6187149;23;20486;-86
2023/09/07 09:13:00;;;;;;;6.63;4.13;;;24.20;95.40;;;23.84;52.93;100949.47;6188071;23;20027;-87
2023/09/07 09:15:28;;;;;;;7.43;4.15;;;24.20;92.60;;;23.83;51.95;100953.31;6187756;23;20447;-87
2023/09/07 09:17:55;;;;;;;7.40;4.10;;;24.20;91.40;;;23.82;53.22;100943.50;6187846;23;20344;-87
2023/09/07 09:20:24;;;;;;;6.93;3.72;;;24.20;93.20;;;23.87;51.95;100954.34;6187051;23;20020;-86
2023/09/07 09:22:56;;;;;;;8.23;4.45;;;24.20;91.80;;;23.86;51.96;100947.25;6187988;23;20021;-87
2023/09/07 09:25:23;;;;;;;9.63;4.20;;;24.20;91.80;;;23.88;52.42;100939.63;6187373;23;20440;-87
2023/09/07 09:27:51;;;;;;;6.20;4.05;;;24.20;92.00;;;23.93;51.51;100941.50;6187570;23;20534;-87
2023/09/07 09:30:19;;;;;;;7.78;4.20;;;24.20;91.00;;;23.90;50.84;100945.59;6186742;23;20103;-87
2023/09/07 09:32:49;;;;;;;11.38;4.13;;;24.20;90.20;;;23.97;51.80;100937.91;6188136;23;20344;-87
2023/09/07 09:35:18;;;;;;;8.23;4.10;;;24.30;90.90;;;24.03;52.45;100944.91;6212726;23;20151;-86
2023/09/07 09:37:46;;;;;;;6.45;4.03;;;24.40;91.60;;;24.03;51.35;100936.72;6187125;23;20023;-87
2023/09/07 09:40:17;;;;;;;7.50;4.22;;;24.40;90.60;;;24.03;52.27;100934.00;6186907;23;20111;-87
2023/09/07 09:42:45;;;;;;;6.45;4.28;;;24.40;91.40;;;24.04;51.31;100932.91;6187801;23;20045;-86
2023/09/07 09:45:13;;;;;;;7.05;4.25;;;24.40;90.00;;;24.01;51.12;100938.09;6188078;23;20024;-87
2023/09/07 09:47:43;;;;;;;7.97;4.30;;;24.40;89.80;;;24.02;51.88;100932.38;6188298;23;20380;-86
2023/09/07 09:50:12;;;;;;;7.78;4.07;;;24.40;90.60;;;24.03;50.60;100930.47;6187002;23;20024;-87
2023/09/07 09:52:40;;;;;;;6.75;3.97;;;24.40;89.40;;;24.07;51.14;100926.88;6187869;23;20021;-87
2023/09/07 09:55:12;;;;;;;6.75;3.97;;;24.40;90.00;;;24.11;51.06;100927.13;6187743;23;20325;-87
2023/09/07 09:57:41;;;;;;;8.10;3.88;;;24.40;89.80;;;24.12;52.02;100926.81;6212800;23;20020;-87
2023/09/07 10:00:21;;;;;;;6.80;4.13;;;24.50;90.90;;;24.21;51.97;100926.19;6186827;23;20104;-87
2023/09/07 10:02:57;;;;;;;8.90;4.13;;;24.60;90.90;;;24.31;51.85;100917.88;6187549;23;20025;-86
2023/09/07 10:05:25;;;;;;;6.13;3.97;;;24.70;90.60;;;24.34;51.60;100920.00;6187214;23;20059;-87
2023/09/07 10:07:51;;;;;;;7.03;4.03;;;24.70;90.40;;;24.34;50.86;100914.56;6212365;23;20023;-87
2023/09/07 10:10:20;;;;;;;10.93;4.45;;;24.70;89.30;;;24.33;50.56;100919.19;6186745;23;20021;-87
2023/09/07 10:12:54;;;;;;;8.90;4.50;;;24.70;89.00;;;24.39;52.00;100907.13;6187428;23;20021;-87
2023/09/07 10:15:24;;;;;;;7.00;4.30;;;24.80;90.40;;;24.40;51.57;100913.41;6187423;23;20028;-87